createdAt,value
2023-02-13T00:00:46.104Z,212.95
2023-02-13T00:03:14.690Z,310.23
2023-02-13T00:05:42.596Z,296.27
2023-02-13T00:08:10.370Z,322.08
2023-02-13T00:10:38.213Z,293.50
2023-02-13T00:13:06.215Z,111.78
2023-02-13T00:15:34.675Z,108.35
2023-02-13T00:18:03.143Z,177.32
2023-02-13T00:20:31.232Z,293.80
2023-02-13T00:23:00.042Z,205.60
2023-02-13T00:25:28.230Z,299.42
2023-02-13T00:27:56.035Z,286.17
2023-02-13T00:30:24.234Z,375.80
2023-02-13T00:32:52.742Z,246.98
2023-02-13T00:35:22.117Z,235.35
2023-02-13T00:37:50.373Z,158.25
2023-02-13T00:40:18.206Z,163.18
2023-02-13T00:42:46.030Z,172.18
2023-02-13T00:45:14.123Z,172.48
2023-02-13T00:47:42.046Z,150.07
2023-02-13T00:50:10.466Z,136.85
2023-02-13T00:52:38.139Z,178.27
2023-02-13T00:55:06.392Z,165.95
2023-02-13T00:57:34.563Z,195.40
2023-02-13T01:00:02.625Z,156.70
2023-02-13T01:02:30.868Z,126.22
2023-02-13T01:04:59.044Z,125.90
2023-02-13T01:07:26.818Z,109.60
2023-02-13T01:09:54.750Z,123.82
2023-02-13T01:12:22.629Z,124.07
2023-02-13T01:14:50.782Z,148.57
2023-02-13T01:17:19.161Z,141.48
2023-02-13T01:19:47.315Z,142.10
2023-02-13T01:22:16.548Z,123.82
2023-02-13T01:24:44.902Z,109.80
2023-02-13T01:27:13.110Z,88.22
2023-02-13T01:29:41.156Z,113.45
2023-02-13T01:32:09.563Z,91.65
2023-02-13T01:34:37.668Z,107.30
2023-02-13T01:37:08.785Z,135.13
2023-02-13T01:39:36.878Z,118.37
2023-02-13T01:42:04.893Z,121.05
2023-02-13T01:44:52.689Z,144.10
2023-02-13T01:47:44.598Z,113.28
2023-02-13T01:52:43.568Z,98.43
2023-02-13T01:55:11.656Z,96.15
2023-02-13T01:57:40.304Z,115.68
2023-02-13T02:00:10.342Z,104.80
2023-02-13T02:02:53.334Z,105.30
2023-02-13T02:05:25.575Z,110.93
2023-02-13T02:07:54.008Z,111.90
2023-02-13T02:10:24.040Z,119.63
2023-02-13T02:13:14.986Z,99.65
2023-02-13T02:15:43.463Z,142.98
2023-02-13T02:18:29.678Z,118.88
2023-02-13T02:21:10.014Z,132.10
2023-02-13T02:24:36.568Z,104.95
2023-02-13T02:27:25.863Z,101.38
2023-02-13T02:30:40.985Z,78.10
2023-02-13T02:33:31.428Z,127.65
2023-02-13T02:36:19.125Z,148.82
2023-02-13T02:39:13.096Z,125.90
2023-02-13T02:41:49.740Z,112.60
2023-02-13T02:44:43.886Z,142.00
2023-02-13T02:47:39.481Z,147.40
2023-02-13T02:50:25.299Z,157.00
2023-02-13T02:53:16.173Z,154.45
2023-02-13T02:56:17.385Z,149.65
2023-02-13T02:59:16.029Z,138.18
2023-02-13T03:02:02.150Z,135.88
2023-02-13T03:05:08.757Z,135.13
2023-02-13T03:07:36.627Z,105.00
2023-02-13T03:10:28.230Z,92.30
2023-02-13T03:13:23.864Z,150.32
2023-02-13T03:16:12.460Z,114.15
2023-02-13T03:19:00.356Z,127.15
2023-02-13T03:22:14.507Z,138.90
2023-02-13T03:25:01.073Z,135.55
2023-02-13T03:28:06.098Z,105.38
2023-02-13T03:31:12.611Z,137.20
2023-02-13T03:33:46.585Z,138.40
2023-02-13T03:36:38.753Z,140.07
2023-02-13T03:39:14.562Z,121.70
2023-02-13T03:42:00.875Z,141.52
2023-02-13T03:44:46.200Z,139.43
2023-02-13T03:47:14.517Z,154.20
2023-02-13T03:50:06.719Z,150.20
2023-02-13T03:52:46.976Z,121.05
2023-02-13T03:55:44.655Z,150.15
2023-02-13T03:58:49.042Z,161.65
2023-02-13T04:01:18.412Z,160.10
2023-02-13T04:03:54.607Z,154.32
2023-02-13T04:06:28.191Z,160.10
2023-02-13T04:08:56.227Z,171.30
2023-02-13T04:11:37.187Z,172.05
2023-02-13T04:14:08.677Z,120.55
2023-02-13T04:16:38.229Z,123.40
2023-02-13T04:19:06.863Z,166.30
2023-02-13T04:21:35.270Z,136.50
2023-02-13T04:24:03.577Z,162.13
2023-02-13T04:26:39.748Z,204.30
2023-02-13T04:29:07.772Z,180.18
2023-02-13T04:31:36.296Z,192.25
2023-02-13T04:34:04.250Z,180.82
2023-02-13T04:36:32.101Z,212.73
2023-02-13T04:39:00.465Z,198.70
2023-02-13T04:41:28.397Z,174.52
2023-02-13T04:43:56.239Z,185.63
2023-02-13T04:46:24.787Z,190.23
2023-02-13T04:48:52.998Z,172.38
2023-02-13T04:51:20.811Z,185.52
2023-02-13T04:53:48.813Z,180.82
2023-02-13T04:56:18.041Z,201.65
2023-02-13T04:58:47.581Z,187.13
2023-02-13T05:01:16.082Z,213.15
2023-02-13T05:03:44.160Z,103.47
2023-02-13T05:06:12.044Z,195.00
2023-02-13T05:08:40.060Z,195.90
2023-02-13T05:11:08.481Z,167.57
2023-02-13T05:13:36.462Z,203.05
2023-02-13T05:16:04.785Z,179.35
2023-02-13T05:18:32.969Z,196.48
2023-02-13T05:21:18.960Z,197.05
2023-02-13T05:23:46.847Z,207.52
2023-02-13T05:26:14.760Z,175.52
2023-02-13T05:29:01.085Z,239.35
2023-02-13T05:31:29.327Z,190.05
2023-02-13T05:33:57.597Z,230.95
2023-02-13T05:36:25.408Z,192.75
2023-02-13T05:38:53.798Z,220.27
2023-02-13T05:41:21.570Z,235.27
2023-02-13T05:43:49.683Z,134.77
2023-02-13T05:46:18.832Z,212.63
2023-02-13T05:48:46.580Z,180.45
2023-02-13T05:51:14.560Z,191.57
2023-02-13T05:53:42.283Z,180.93
2023-02-13T05:56:10.636Z,199.68
2023-02-13T05:58:38.543Z,209.88
2023-02-13T06:01:06.716Z,207.23
2023-02-13T06:03:35.274Z,188.07
2023-02-13T06:06:03.122Z,163.35
2023-02-13T06:08:31.173Z,185.95
2023-02-13T06:10:59.695Z,180.35
2023-02-13T06:13:28.000Z,171.77
2023-02-13T06:15:56.274Z,198.57
2023-02-13T06:18:24.660Z,220.73
2023-02-13T06:20:52.498Z,217.95
2023-02-13T06:23:20.560Z,211.32
2023-02-13T06:25:50.152Z,189.02
2023-02-13T06:28:18.530Z,223.50
2023-02-13T06:30:47.124Z,216.55
2023-02-13T06:33:15.508Z,231.02
2023-02-13T06:35:43.659Z,221.82
2023-02-13T06:38:11.926Z,221.43
2023-02-13T06:40:39.972Z,221.40
2023-02-13T06:43:07.988Z,220.23
2023-02-13T06:45:36.104Z,196.32
2023-02-13T06:48:04.254Z,218.38
2023-02-13T06:50:32.070Z,236.43
2023-02-13T06:53:00.399Z,233.95
2023-02-13T06:55:28.842Z,216.93
2023-02-13T06:57:56.734Z,224.65
2023-02-13T07:00:27.018Z,233.90
2023-02-13T07:02:55.259Z,204.27
2023-02-13T07:05:23.214Z,197.52
2023-02-13T07:07:50.965Z,196.23
2023-02-13T07:10:18.929Z,210.60
2023-02-13T07:12:56.813Z,200.43
2023-02-13T07:15:32.752Z,226.40
2023-02-13T07:18:00.762Z,217.63
2023-02-13T07:20:29.395Z,206.07
2023-02-13T07:23:04.741Z,204.88
2023-02-13T07:25:33.093Z,203.23
2023-02-13T07:28:05.050Z,186.38
2023-02-13T07:30:33.487Z,219.98
2023-02-13T07:33:05.155Z,211.32
2023-02-13T07:35:33.645Z,203.85
2023-02-13T07:38:02.026Z,168.82
2023-02-13T07:40:30.132Z,175.15
2023-02-13T07:43:00.961Z,152.05
2023-02-13T07:45:29.187Z,177.38
2023-02-13T07:47:57.194Z,164.60
2023-02-13T07:50:25.181Z,172.68
2023-02-13T07:52:59.872Z,153.73
2023-02-13T07:55:29.297Z,152.68
2023-02-13T07:57:57.170Z,164.05
2023-02-13T08:00:25.369Z,167.98
2023-02-13T08:02:53.509Z,157.43
2023-02-13T08:05:21.327Z,163.43
2023-02-13T08:07:49.108Z,151.93
2023-02-13T08:10:35.142Z,151.77
2023-02-13T08:13:02.990Z,157.90
2023-02-13T08:15:30.994Z,154.63
2023-02-13T08:18:00.051Z,132.50
2023-02-13T08:20:28.229Z,155.18
2023-02-13T08:23:10.290Z,154.98
2023-02-13T08:25:39.084Z,161.03
2023-02-13T08:28:07.235Z,176.27
2023-02-13T08:30:35.572Z,153.38
2023-02-13T08:33:03.615Z,152.75
2023-02-13T08:35:32.072Z,164.30
2023-02-13T08:38:04.746Z,155.18
2023-02-13T08:43:04.940Z,125.75
2023-02-13T08:45:33.349Z,161.15
2023-02-13T08:48:01.460Z,152.50
2023-02-13T08:50:29.831Z,149.82
2023-02-13T08:52:59.043Z,118.78
2023-02-13T08:55:27.950Z,141.75
2023-02-13T08:57:55.651Z,140.80
2023-02-13T09:00:23.892Z,142.30
2023-02-13T09:02:52.048Z,136.93
2023-02-13T09:05:20.085Z,109.20
2023-02-13T09:07:48.201Z,105.72
2023-02-13T09:10:16.037Z,110.82
2023-02-13T09:12:44.184Z,128.68
2023-02-13T09:15:12.239Z,126.40
2023-02-13T09:17:40.190Z,128.98
2023-02-13T09:20:08.769Z,91.13
2023-02-13T09:22:36.919Z,126.90
2023-02-13T09:25:05.667Z,115.03
2023-02-13T09:27:34.278Z,122.38
2023-02-13T09:30:02.166Z,116.85
2023-02-13T09:32:30.307Z,112.97
2023-02-13T09:34:58.366Z,119.80
2023-02-13T09:37:27.480Z,115.88
2023-02-13T09:39:55.181Z,129.05
2023-02-13T09:42:32.185Z,123.15
2023-02-13T09:45:01.927Z,120.63
2023-02-13T09:47:38.120Z,118.38
2023-02-13T09:50:13.762Z,114.40
2023-02-13T09:52:42.242Z,119.57
2023-02-13T09:55:18.326Z,115.60
2023-02-13T09:57:55.191Z,107.97
2023-02-13T10:00:40.683Z,121.78
2023-02-13T10:03:28.823Z,124.80
2023-02-13T10:06:07.096Z,115.38
2023-02-13T10:09:05.054Z,92.13
2023-02-13T10:12:06.982Z,115.30
2023-02-13T10:14:59.611Z,107.95
2023-02-13T10:22:36.705Z,94.60
2023-02-13T10:25:13.118Z,110.40
2023-02-13T10:27:46.298Z,85.55
2023-02-13T10:30:23.803Z,88.18
2023-02-13T10:33:21.000Z,107.32
2023-02-13T10:36:00.970Z,113.82
2023-02-13T10:38:36.367Z,87.70
2023-02-13T10:41:22.976Z,116.38
2023-02-13T10:44:09.166Z,108.07
2023-02-13T10:47:25.203Z,115.95
2023-02-13T10:50:14.948Z,108.90
2023-02-13T10:53:09.267Z,108.88
2023-02-13T10:55:55.791Z,109.25
2023-02-13T10:58:30.601Z,107.68
2023-02-13T11:01:13.756Z,111.18
2023-02-13T11:03:41.968Z,105.03
2023-02-13T11:06:12.500Z,125.03
2023-02-13T11:08:43.856Z,119.03
2023-02-13T11:11:31.865Z,107.95
2023-02-13T11:14:10.583Z,105.30
2023-02-13T11:16:41.273Z,125.35
2023-02-13T11:19:18.543Z,116.60
2023-02-13T11:21:47.410Z,119.38
2023-02-13T11:24:25.899Z,116.97
2023-02-13T11:26:59.047Z,120.47
2023-02-13T11:29:32.281Z,129.57
2023-02-13T11:32:13.297Z,133.73
2023-02-13T11:34:41.233Z,140.13
2023-02-13T11:37:24.511Z,141.52
2023-02-13T11:39:54.349Z,133.63
2023-02-13T11:42:33.236Z,148.05
2023-02-13T11:45:03.244Z,167.45
2023-02-13T11:47:32.445Z,149.15
2023-02-13T11:50:00.728Z,138.20
2023-02-13T11:52:35.771Z,142.60
2023-02-13T11:55:05.955Z,129.40
2023-02-13T11:57:37.592Z,129.90
2023-02-13T12:00:42.102Z,141.20
2023-02-13T12:03:22.678Z,120.00
2023-02-13T12:06:09.415Z,112.40
2023-02-13T12:08:38.357Z,132.77
2023-02-13T12:11:43.131Z,143.55
2023-02-13T12:14:14.095Z,136.15
2023-02-13T12:16:50.857Z,129.80
2023-02-13T12:19:22.682Z,138.13
2023-02-13T12:21:55.613Z,116.57
2023-02-13T12:24:30.409Z,112.13
2023-02-13T12:27:14.109Z,131.50
2023-02-13T12:30:11.255Z,129.05
2023-02-13T12:32:50.821Z,119.40
2023-02-13T12:36:00.108Z,119.45
2023-02-13T12:38:34.783Z,121.05
2023-02-13T12:41:32.103Z,112.47
2023-02-13T12:44:33.994Z,116.45
2023-02-13T12:47:11.986Z,157.55
2023-02-13T12:50:04.349Z,134.07
2023-02-13T12:52:37.632Z,151.02
2023-02-13T12:55:23.977Z,139.80
2023-02-13T12:58:17.545Z,121.78
2023-02-13T13:01:08.983Z,106.30
2023-02-13T13:04:00.126Z,126.13
2023-02-13T13:06:57.638Z,117.38
2023-02-13T13:10:01.889Z,108.40
2023-02-13T13:12:38.137Z,117.07
2023-02-13T13:15:41.313Z,105.50
2023-02-13T13:20:56.862Z,112.45
2023-02-13T13:23:43.580Z,121.88
2023-02-13T13:26:36.530Z,108.28
2023-02-13T13:29:28.307Z,95.00
2023-02-13T13:32:07.049Z,114.00
2023-02-13T13:34:35.722Z,113.05
2023-02-13T13:37:14.460Z,117.07
2023-02-13T13:40:04.595Z,111.97
2023-02-13T13:42:42.775Z,103.20
2023-02-13T13:45:51.551Z,110.70
2023-02-13T13:48:33.956Z,105.68
2023-02-13T13:51:01.759Z,85.57
2023-02-13T13:53:29.893Z,113.47
2023-02-13T13:55:58.685Z,100.95
2023-02-13T13:58:35.412Z,118.40
2023-02-13T14:01:25.825Z,99.43
2023-02-13T14:03:58.625Z,109.70
2023-02-13T14:06:28.210Z,109.18
2023-02-13T14:08:58.739Z,119.95
2023-02-13T14:11:32.689Z,108.25
2023-02-13T14:14:01.224Z,115.78
2023-02-13T14:16:47.652Z,108.82
2023-02-13T14:19:34.768Z,100.38
2023-02-13T14:22:25.130Z,102.43
2023-02-13T14:24:53.373Z,93.97
2023-02-13T14:27:25.019Z,97.32
2023-02-13T14:29:53.175Z,96.47
2023-02-13T14:32:31.985Z,92.72
2023-02-13T14:35:26.660Z,102.88
2023-02-13T14:37:59.628Z,105.50
2023-02-13T14:40:44.405Z,110.53
2023-02-13T14:43:21.605Z,119.70
2023-02-13T14:46:06.109Z,111.97
2023-02-13T14:48:54.327Z,119.15
2023-02-13T14:51:35.527Z,106.43
2023-02-13T14:54:24.070Z,81.20
2023-02-13T14:56:52.819Z,104.93
2023-02-13T14:59:25.030Z,99.93
2023-02-13T15:02:10.299Z,94.53
2023-02-13T15:04:49.427Z,109.72
2023-02-13T15:07:23.813Z,116.97
2023-02-13T15:09:54.162Z,111.55
2023-02-13T15:12:35.859Z,134.75
2023-02-13T15:15:24.227Z,109.32
2023-02-13T15:17:59.118Z,136.63
2023-02-13T15:20:35.189Z,156.80
2023-02-13T15:23:03.284Z,156.13
2023-02-13T15:25:34.977Z,142.88
2023-02-13T15:28:04.299Z,147.88
2023-02-13T15:30:37.349Z,148.70
2023-02-13T15:33:27.191Z,153.95
2023-02-13T15:36:02.879Z,148.43
2023-02-13T15:38:36.825Z,130.85
2023-02-13T15:41:13.643Z,127.45
2023-02-13T15:43:44.306Z,130.27
2023-02-13T15:46:26.280Z,132.70
2023-02-13T15:48:54.898Z,120.07
2023-02-13T15:51:31.859Z,132.98
2023-02-13T15:54:01.352Z,136.75
2023-02-13T15:56:29.548Z,126.82
2023-02-13T15:58:58.165Z,132.57
2023-02-13T16:01:26.228Z,139.52
2023-02-13T16:04:07.659Z,129.13
2023-02-13T16:06:35.844Z,117.85
2023-02-13T16:09:04.205Z,117.78
2023-02-13T16:11:38.804Z,125.28
2023-02-13T16:14:16.134Z,115.38
2023-02-13T16:16:47.019Z,111.85
2023-02-13T16:19:29.313Z,113.15
2023-02-13T16:21:58.229Z,116.10
2023-02-13T16:24:26.754Z,111.53
2023-02-13T16:26:54.976Z,125.30
2023-02-13T16:29:24.342Z,123.97
2023-02-13T16:31:52.992Z,113.80
2023-02-13T16:34:26.788Z,133.23
2023-02-13T16:36:55.213Z,131.93
2023-02-13T16:39:33.456Z,126.38
2023-02-13T16:42:01.534Z,246.73
2023-02-13T16:44:33.530Z,241.18
2023-02-13T16:47:02.702Z,309.20
2023-02-13T16:49:37.220Z,300.75
2023-02-13T16:52:40.937Z,270.08
2023-02-13T16:55:15.440Z,267.50
2023-02-13T16:57:44.998Z,206.73
2023-02-13T17:00:23.151Z,214.02
2023-02-13T17:02:52.541Z,234.60
2023-02-13T17:05:25.975Z,233.02
2023-02-13T17:07:57.344Z,234.27
2023-02-13T17:10:36.249Z,188.23
2023-02-13T17:13:14.241Z,227.93
2023-02-13T17:15:44.643Z,249.05
2023-02-13T17:18:12.732Z,230.32
2023-02-13T17:20:44.518Z,243.25
2023-02-13T17:23:18.354Z,226.45
2023-02-13T17:25:49.978Z,277.02
2023-02-13T17:28:19.452Z,233.33
2023-02-13T17:30:48.293Z,259.10
2023-02-13T17:33:20.273Z,332.13
2023-02-13T17:35:48.276Z,360.45
2023-02-13T17:38:16.148Z,303.17
2023-02-13T17:40:44.350Z,282.95
2023-02-13T17:43:13.148Z,295.40
2023-02-13T17:45:41.387Z,333.65
2023-02-13T17:48:09.138Z,299.92
2023-02-13T17:50:37.257Z,211.90
2023-02-13T17:53:06.236Z,216.82
2023-02-13T17:55:34.616Z,232.40
2023-02-13T17:58:02.574Z,189.43
2023-02-13T18:00:31.786Z,190.10
2023-02-13T18:03:00.380Z,192.95
2023-02-13T18:05:28.961Z,194.75
2023-02-13T18:07:56.822Z,199.30
2023-02-13T18:10:28.181Z,192.82
2023-02-13T18:12:57.815Z,195.73
2023-02-13T18:15:25.887Z,193.00
2023-02-13T18:17:53.757Z,189.07
2023-02-13T18:20:21.813Z,212.57
2023-02-13T18:22:52.834Z,197.80
2023-02-13T18:25:21.247Z,228.20
2023-02-13T18:27:49.230Z,230.75
2023-02-13T18:30:18.754Z,239.25
2023-02-13T18:32:47.043Z,244.23
2023-02-13T18:35:15.243Z,302.00
2023-02-13T18:37:43.005Z,308.88
2023-02-13T18:40:11.321Z,298.52
2023-02-13T18:42:39.499Z,284.17
2023-02-13T18:45:07.735Z,313.17
2023-02-13T18:47:35.433Z,313.10
2023-02-13T18:50:03.557Z,300.35
2023-02-13T18:52:31.408Z,295.63
2023-02-13T18:54:59.162Z,280.70
2023-02-13T18:57:27.256Z,300.52
2023-02-13T18:59:55.101Z,290.48
2023-02-13T19:02:23.728Z,273.95
2023-02-13T19:04:51.512Z,308.55
2023-02-13T19:15:56.798Z,164.40
2023-02-13T19:18:25.038Z,149.45
2023-02-13T19:20:53.010Z,165.48
2023-02-13T19:23:21.058Z,174.75
2023-02-13T19:25:48.813Z,185.48
2023-02-13T19:28:16.582Z,187.73
2023-02-13T19:30:44.824Z,191.13
2023-02-13T19:33:12.551Z,188.70
2023-02-13T19:35:40.953Z,169.05
2023-02-13T19:38:08.976Z,172.85
2023-02-13T19:40:37.298Z,165.70
2023-02-13T19:43:05.436Z,167.73
2023-02-13T19:45:33.867Z,158.15
2023-02-13T19:48:02.280Z,189.45
2023-02-13T19:50:30.689Z,191.85
2023-02-13T19:52:58.703Z,176.85
2023-02-13T19:55:27.884Z,178.95
2023-02-13T19:57:55.732Z,185.50
2023-02-13T20:00:23.576Z,195.73
2023-02-13T20:02:51.357Z,226.05
2023-02-13T20:05:19.807Z,231.40
2023-02-13T20:07:47.949Z,194.93
2023-02-13T20:10:15.953Z,201.18
2023-02-13T20:12:44.045Z,197.27
2023-02-13T20:15:11.782Z,179.63
2023-02-13T20:17:39.987Z,211.10
2023-02-13T20:20:08.607Z,188.05
2023-02-13T20:22:36.275Z,166.90
2023-02-13T20:25:04.661Z,164.65
2023-02-13T20:27:32.750Z,173.85
2023-02-13T20:30:07.072Z,172.80
2023-02-13T20:32:36.104Z,173.48
2023-02-13T20:35:04.473Z,153.75
2023-02-13T20:37:32.764Z,157.70
2023-02-13T20:40:01.207Z,179.93
2023-02-13T20:42:28.922Z,156.93
2023-02-13T20:44:57.187Z,166.32
2023-02-13T20:47:25.058Z,173.30
2023-02-13T20:49:52.942Z,178.35
2023-02-13T20:52:21.206Z,145.40
2023-02-13T20:54:49.048Z,170.57
2023-02-13T20:57:17.069Z,151.65
2023-02-13T20:59:48.017Z,140.23
2023-02-13T21:02:16.786Z,132.43
2023-02-13T21:04:44.506Z,148.68
2023-02-13T21:07:12.895Z,126.03
2023-02-13T21:09:40.784Z,150.45
2023-02-13T21:12:08.616Z,134.18
2023-02-13T21:14:36.464Z,140.45
2023-02-13T21:17:04.233Z,140.20
2023-02-13T21:19:32.513Z,123.18
2023-02-13T21:22:12.564Z,149.52
2023-02-13T21:24:41.192Z,143.93
2023-02-13T21:27:09.412Z,145.90
2023-02-13T21:29:38.382Z,144.43
2023-02-13T21:32:06.966Z,146.50
2023-02-13T21:34:35.064Z,148.23
2023-02-13T21:37:02.833Z,173.82
2023-02-13T21:39:30.930Z,203.48
2023-02-13T21:41:59.046Z,190.07
2023-02-13T21:44:27.033Z,200.75
2023-02-13T21:46:54.904Z,213.75
2023-02-13T21:49:22.633Z,181.70
2023-02-13T21:51:50.652Z,165.30
2023-02-13T21:54:18.609Z,154.30
2023-02-13T21:56:46.720Z,131.63
2023-02-13T21:59:17.913Z,146.88
2023-02-13T22:01:47.485Z,125.50
2023-02-13T22:04:15.874Z,127.78
2023-02-13T22:06:44.347Z,131.70
2023-02-13T22:09:13.915Z,132.65
2023-02-13T22:11:42.071Z,144.05
2023-02-13T22:14:12.958Z,136.25
2023-02-13T22:16:42.852Z,134.88
2023-02-13T22:19:15.507Z,135.00
2023-02-13T22:21:43.431Z,122.60
2023-02-13T22:24:11.964Z,111.78
2023-02-13T22:26:40.778Z,114.88
2023-02-13T22:29:10.157Z,121.18
2023-02-13T22:31:38.384Z,120.22
2023-02-13T22:34:06.569Z,126.25
2023-02-13T22:36:36.059Z,132.85
2023-02-13T22:39:03.676Z,140.75
2023-02-13T22:41:31.620Z,133.73
2023-02-13T22:43:59.556Z,127.88
2023-02-13T22:46:30.397Z,122.45
2023-02-13T22:48:58.972Z,131.65
2023-02-13T22:51:32.243Z,134.23
2023-02-13T22:54:00.615Z,129.55
2023-02-13T22:56:28.916Z,119.97
2023-02-13T22:58:56.909Z,136.15
2023-02-13T23:01:26.105Z,134.18
2023-02-13T23:03:54.529Z,141.65
2023-02-13T23:06:22.969Z,125.20
2023-02-13T23:08:52.943Z,131.52
2023-02-13T23:11:41.521Z,122.38
2023-02-13T23:14:10.768Z,120.35
2023-02-13T23:17:00.422Z,128.73
2023-02-13T23:19:30.175Z,122.65
2023-02-13T23:21:58.455Z,115.97
2023-02-13T23:24:26.915Z,109.40
2023-02-13T23:26:55.045Z,114.78
2023-02-13T23:29:23.165Z,111.65
2023-02-13T23:31:51.360Z,112.05
2023-02-13T23:34:19.635Z,115.75
2023-02-13T23:36:47.578Z,129.50
2023-02-13T23:39:15.348Z,123.13
2023-02-13T23:41:43.379Z,136.43
2023-02-13T23:44:11.226Z,125.50
2023-02-13T23:46:39.457Z,142.35
2023-02-13T23:49:07.659Z,144.70
2023-02-13T23:51:35.600Z,158.40
2023-02-13T23:54:04.312Z,146.43
2023-02-13T23:56:32.116Z,149.23
2023-02-13T23:59:00.239Z,154.07
